sensor_id;sensor_type;location;lat;lon;timestamp;pressure;altitude;pressure_sealevel;temperature;humidity
26859;BME280;14429;48.346;16.338;2022-12-24T00:00:13;98899.97;;;9.82;67.79
26859;BME280;14429;48.346;16.338;2022-12-24T00:02:38;98897.53;;;9.46;69.60
26859;BME280;14429;48.346;16.338;2022-12-24T00:05:05;98901.09;;;10.01;64.47
26859;BME280;14429;48.346;16.338;2022-12-24T00:07:30;98908.47;;;9.87;67.51
26859;BME280;14429;48.346;16.338;2022-12-24T00:09:56;98894.16;;;10.31;63.64
26859;BME280;14429;48.346;16.338;2022-12-24T00:12:22;98895.50;;;10.47;61.55
26859;BME280;14429;48.346;16.338;2022-12-24T00:14:48;98895.53;;;10.78;59.93
26859;BME280;14429;48.346;16.338;2022-12-24T00:17:14;98901.88;;;10.97;60.89
26859;BME280;14429;48.346;16.338;2022-12-24T00:19:39;98893.16;;;10.95;59.18
26859;BME280;14429;48.346;16.338;2022-12-24T00:22:05;98892.97;;;11.07;58.17
26859;BME280;14429;48.346;16.338;2022-12-24T00:24:30;98897.56;;;11.05;60.23
26859;BME280;14429;48.346;16.338;2022-12-24T00:26:56;98900.84;;;11.09;59.33
26859;BME280;14429;48.346;16.338;2022-12-24T00:29:21;98904.84;;;11.14;59.45
26859;BME280;14429;48.346;16.338;2022-12-24T00:31:48;98912.00;;;11.14;61.63
26859;BME280;14429;48.346;16.338;2022-12-24T00:34:13;98913.28;;;11.19;59.97
26859;BME280;14429;48.346;16.338;2022-12-24T00:36:39;98928.50;;;11.08;59.33
26859;BME280;14429;48.346;16.338;2022-12-24T00:39:04;98909.03;;;11.17;59.00
26859;BME280;14429;48.346;16.338;2022-12-24T00:41:30;98904.34;;;11.09;60.08
26859;BME280;14429;48.346;16.338;2022-12-24T00:43:57;98916.25;;;11.05;61.57
26859;BME280;14429;48.346;16.338;2022-12-24T00:46:24;98912.03;;;11.03;60.28
26859;BME280;14429;48.346;16.338;2022-12-24T00:48:52;98902.72;;;10.98;60.35
26859;BME280;14429;48.346;16.338;2022-12-24T00:51:18;98910.66;;;11.08;59.47
26859;BME280;14429;48.346;16.338;2022-12-24T00:53:43;98913.47;;;11.07;60.24
26859;BME280;14429;48.346;16.338;2022-12-24T00:56:09;98914.91;;;11.11;60.11
26859;BME280;14429;48.346;16.338;2022-12-24T00:58:35;98923.31;;;11.06;59.75
26859;BME280;14429;48.346;16.338;2022-12-24T01:01:00;98937.34;;;11.08;61.92
26859;BME280;14429;48.346;16.338;2022-12-24T01:03:26;98926.19;;;11.14;59.45
26859;BME280;14429;48.346;16.338;2022-12-24T01:05:53;98932.00;;;11.08;59.90
26859;BME280;14429;48.346;16.338;2022-12-24T01:08:18;98943.88;;;11.15;59.49
26859;BME280;14429;48.346;16.338;2022-12-24T01:10:44;98931.25;;;11.17;60.22
26859;BME280;14429;48.346;16.338;2022-12-24T01:13:09;98924.22;;;11.16;60.56
26859;BME280;14429;48.346;16.338;2022-12-24T01:15:36;98916.94;;;11.18;59.31
26859;BME280;14429;48.346;16.338;2022-12-24T01:18:01;98876.38;;;11.04;59.98
26859;BME280;14429;48.346;16.338;2022-12-24T01:20:26;98890.75;;;11.12;59.73
26859;BME280;14429;48.346;16.338;2022-12-24T01:22:53;98913.28;;;11.19;61.24
26859;BME280;14429;48.346;16.338;2022-12-24T01:25:19;98903.84;;;11.15;60.39
26859;BME280;14429;48.346;16.338;2022-12-24T01:27:44;98903.81;;;11.26;61.38
26859;BME280;14429;48.346;16.338;2022-12-24T01:30:12;98910.47;;;11.21;60.08
26859;BME280;14429;48.346;16.338;2022-12-24T01:32:38;98917.59;;;11.31;63.29
26859;BME280;14429;48.346;16.338;2022-12-24T01:35:04;98919.16;;;11.13;60.31
26859;BME280;14429;48.346;16.338;2022-12-24T01:37:29;98926.91;;;11.05;62.43
26859;BME280;14429;48.346;16.338;2022-12-24T01:39:56;98934.47;;;11.01;61.67
26859;BME280;14429;48.346;16.338;2022-12-24T01:42:22;98943.91;;;11.04;61.23
26859;BME280;14429;48.346;16.338;2022-12-24T01:44:50;98955.72;;;11.22;62.60
26859;BME280;14429;48.346;16.338;2022-12-24T01:47:17;98959.63;;;11.18;64.12
26859;BME280;14429;48.346;16.338;2022-12-24T01:49:48;98959.09;;;11.24;63.38
26859;BME280;14429;48.346;16.338;2022-12-24T01:52:18;98947.94;;;11.30;66.32
26859;BME280;14429;48.346;16.338;2022-12-24T01:54:47;98961.50;;;11.27;62.83
26859;BME280;14429;48.346;16.338;2022-12-24T01:57:18;98954.00;;;11.32;62.16
26859;BME280;14429;48.346;16.338;2022-12-24T01:59:48;98939.56;;;11.24;62.26
26859;BME280;14429;48.346;16.338;2022-12-24T02:02:16;98950.13;;;11.25;60.02
26859;BME280;14429;48.346;16.338;2022-12-24T02:04:46;98956.22;;;11.16;60.62
26859;BME280;14429;48.346;16.338;2022-12-24T02:07:14;98955.28;;;11.17;60.52
26859;BME280;14429;48.346;16.338;2022-12-24T02:09:40;98937.84;;;11.33;64.49
26859;BME280;14429;48.346;16.338;2022-12-24T02:12:06;98956.81;;;11.20;61.48
26859;BME280;14429;48.346;16.338;2022-12-24T02:14:33;98965.75;;;11.30;61.56
26859;BME280;14429;48.346;16.338;2022-12-24T02:17:05;98958.59;;;11.30;63.05
26859;BME280;14429;48.346;16.338;2022-12-24T02:22:49;98935.81;;;11.26;63.07
26859;BME280;14429;48.346;16.338;2022-12-24T02:25:32;98945.25;;;11.30;61.24
26859;BME280;14429;48.346;16.338;2022-12-24T02:28:08;98937.66;;;11.26;61.16
26859;BME280;14429;48.346;16.338;2022-12-24T02:30:42;98919.66;;;11.28;64.09
26859;BME280;14429;48.346;16.338;2022-12-24T02:33:19;98914.47;;;11.26;66.64
26859;BME280;14429;48.346;16.338;2022-12-24T02:35:54;98925.16;;;11.26;63.47
26859;BME280;14429;48.346;16.338;2022-12-24T02:38:25;98912.66;;;11.27;62.12
26859;BME280;14429;48.346;16.338;2022-12-24T02:40:54;98913.03;;;11.22;62.95
26859;BME280;14429;48.346;16.338;2022-12-24T02:43:23;98914.81;;;11.32;62.56
26859;BME280;14429;48.346;16.338;2022-12-24T02:45:55;98912.72;;;11.36;67.11
26859;BME280;14429;48.346;16.338;2022-12-24T02:48:23;98918.88;;;11.47;69.79
26859;BME280;14429;48.346;16.338;2022-12-24T02:50:57;98925.66;;;11.51;69.34
26859;BME280;14429;48.346;16.338;2022-12-24T02:53:23;98935.03;;;11.35;66.63
26859;BME280;14429;48.346;16.338;2022-12-24T02:55:58;98928.00;;;11.34;60.97
26859;BME280;14429;48.346;16.338;2022-12-24T02:58:34;98937.25;;;11.30;62.04
26859;BME280;14429;48.346;16.338;2022-12-24T03:01:09;98935.88;;;11.35;60.19
26859;BME280;14429;48.346;16.338;2022-12-24T03:03:39;98938.94;;;11.31;62.28
26859;BME280;14429;48.346;16.338;2022-12-24T03:06:15;98942.34;;;11.33;60.28
26859;BME280;14429;48.346;16.338;2022-12-24T03:08:53;98944.03;;;11.34;60.26
26859;BME280;14429;48.346;16.338;2022-12-24T03:11:22;98955.09;;;11.30;61.25
26859;BME280;14429;48.346;16.338;2022-12-24T03:13:48;98953.50;;;11.38;59.70
26859;BME280;14429;48.346;16.338;2022-12-24T03:16:17;98956.91;;;11.29;60.94
26859;BME280;14429;48.346;16.338;2022-12-24T03:18:46;98962.84;;;11.32;60.22
26859;BME280;14429;48.346;16.338;2022-12-24T03:21:15;98974.59;;;11.30;60.90
26859;BME280;14429;48.346;16.338;2022-12-24T03:23:43;98963.59;;;11.24;62.58
26859;BME280;14429;48.346;16.338;2022-12-24T03:26:10;98971.28;;;11.17;61.50
26859;BME280;14429;48.346;16.338;2022-12-24T03:28:38;98971.97;;;11.19;64.49
26859;BME280;14429;48.346;16.338;2022-12-24T03:31:05;98983.84;;;11.26;60.80
26859;BME280;14429;48.346;16.338;2022-12-24T03:33:32;98983.59;;;11.29;63.88
26859;BME280;14429;48.346;16.338;2022-12-24T03:35:58;98983.59;;;11.29;61.20
26859;BME280;14429;48.346;16.338;2022-12-24T03:38:23;98993.28;;;11.30;61.31
26859;BME280;14429;48.346;16.338;2022-12-24T03:40:49;98999.59;;;11.29;63.93
26859;BME280;14429;48.346;16.338;2022-12-24T03:43:14;98981.63;;;11.31;61.32
26859;BME280;14429;48.346;16.338;2022-12-24T03:45:40;98988.41;;;11.35;67.58
26859;BME280;14429;48.346;16.338;2022-12-24T03:48:05;98991.22;;;11.33;62.64
26859;BME280;14429;48.346;16.338;2022-12-24T03:50:32;98990.63;;;11.30;61.12
26859;BME280;14429;48.346;16.338;2022-12-24T03:52:58;99008.56;;;11.28;62.49
26859;BME280;14429;48.346;16.338;2022-12-24T03:55:23;99007.09;;;11.35;61.44
26859;BME280;14429;48.346;16.338;2022-12-24T03:57:49;98994.25;;;11.40;66.73
26859;BME280;14429;48.346;16.338;2022-12-24T04:00:15;99016.31;;;11.42;65.92
26859;BME280;14429;48.346;16.338;2022-12-24T04:02:41;99023.63;;;11.40;66.35
26859;BME280;14429;48.346;16.338;2022-12-24T04:05:08;99032.09;;;11.34;61.82
26859;BME280;14429;48.346;16.338;2022-12-24T04:07:38;99031.72;;;11.38;62.41
26859;BME280;14429;48.346;16.338;2022-12-24T04:10:04;99032.81;;;11.36;63.95
26859;BME280;14429;48.346;16.338;2022-12-24T04:12:30;99043.50;;;11.36;62.29
26859;BME280;14429;48.346;16.338;2022-12-24T04:14:55;99022.41;;;11.33;63.14
26859;BME280;14429;48.346;16.338;2022-12-24T04:17:21;99021.41;;;11.34;65.37
26859;BME280;14429;48.346;16.338;2022-12-24T04:19:46;99049.81;;;11.24;62.37
26859;BME280;14429;48.346;16.338;2022-12-24T04:22:11;99054.31;;;11.24;62.72
26859;BME280;14429;48.346;16.338;2022-12-24T04:24:38;99056.69;;;11.37;64.89
26859;BME280;14429;48.346;16.338;2022-12-24T04:27:04;99064.13;;;11.34;66.57
26859;BME280;14429;48.346;16.338;2022-12-24T04:29:29;99066.78;;;11.34;64.26
26859;BME280;14429;48.346;16.338;2022-12-24T04:31:55;99059.50;;;11.36;64.58
26859;BME280;14429;48.346;16.338;2022-12-24T04:34:20;99070.69;;;11.30;61.20
26859;BME280;14429;48.346;16.338;2022-12-24T04:36:45;99062.91;;;11.38;62.01
26859;BME280;14429;48.346;16.338;2022-12-24T04:39:11;99059.25;;;11.28;60.57
26859;BME280;14429;48.346;16.338;2022-12-24T04:41:38;99071.88;;;11.37;63.36
26859;BME280;14429;48.346;16.338;2022-12-24T04:44:03;99063.66;;;11.29;60.94
26859;BME280;14429;48.346;16.338;2022-12-24T04:46:29;99070.19;;;11.36;64.87
26859;BME280;14429;48.346;16.338;2022-12-24T04:48:55;99071.78;;;11.38;62.66
26859;BME280;14429;48.346;16.338;2022-12-24T04:51:21;99078.91;;;11.27;60.83
26859;BME280;14429;48.346;16.338;2022-12-24T04:53:47;99089.72;;;11.36;62.11
26859;BME280;14429;48.346;16.338;2022-12-24T04:56:14;99097.97;;;11.33;60.00
26859;BME280;14429;48.346;16.338;2022-12-24T04:58:41;99115.56;;;11.36;63.42
26859;BME280;14429;48.346;16.338;2022-12-24T05:01:10;99110.97;;;11.38;60.39
26859;BME280;14429;48.346;16.338;2022-12-24T05:03:37;99109.25;;;11.37;61.78
26859;BME280;14429;48.346;16.338;2022-12-24T05:06:02;99107.91;;;11.42;61.66
26859;BME280;14429;48.346;16.338;2022-12-24T05:08:28;99112.00;;;11.35;62.26
26859;BME280;14429;48.346;16.338;2022-12-24T05:10:54;99118.84;;;11.29;60.78
26859;BME280;14429;48.346;16.338;2022-12-24T05:13:20;99123.81;;;11.22;61.11
26859;BME280;14429;48.346;16.338;2022-12-24T05:15:47;99122.59;;;11.26;63.63
26859;BME280;14429;48.346;16.338;2022-12-24T05:18:12;99149.88;;;11.30;62.59
26859;BME280;14429;48.346;16.338;2022-12-24T05:20:40;99155.31;;;11.28;61.70
26859;BME280;14429;48.346;16.338;2022-12-24T05:23:05;99155.09;;;11.31;62.54
26859;BME280;14429;48.346;16.338;2022-12-24T05:25:33;99156.31;;;11.27;61.34
26859;BME280;14429;48.346;16.338;2022-12-24T05:28:00;99148.81;;;11.32;63.16
26859;BME280;14429;48.346;16.338;2022-12-24T05:30:26;99154.72;;;11.35;60.03
26859;BME280;14429;48.346;16.338;2022-12-24T05:32:52;99144.03;;;11.35;65.42
26859;BME280;14429;48.346;16.338;2022-12-24T05:35:18;99158.13;;;11.37;60.46
26859;BME280;14429;48.346;16.338;2022-12-24T05:37:43;99164.06;;;11.30;59.96
26859;BME280;14429;48.346;16.338;2022-12-24T05:40:09;99164.06;;;11.30;60.64
26859;BME280;14429;48.346;16.338;2022-12-24T05:42:34;99166.97;;;11.27;59.93
26859;BME280;14429;48.346;16.338;2022-12-24T05:45:00;99161.88;;;11.24;60.74
26859;BME280;14429;48.346;16.338;2022-12-24T05:47:25;99179.72;;;11.34;59.85
26859;BME280;14429;48.346;16.338;2022-12-24T05:49:52;99175.81;;;11.28;60.17
26859;BME280;14429;48.346;16.338;2022-12-24T05:52:17;99172.06;;;11.30;59.74
26859;BME280;14429;48.346;16.338;2022-12-24T05:54:43;99171.84;;;11.33;60.00
26859;BME280;14429;48.346;16.338;2022-12-24T05:57:08;99170.38;;;11.29;61.09
26859;BME280;14429;48.346;16.338;2022-12-24T05:59:34;99185.88;;;11.35;60.80
26859;BME280;14429;48.346;16.338;2022-12-24T06:01:59;99192.44;;;11.31;60.91
26859;BME280;14429;48.346;16.338;2022-12-24T06:04:25;99216.97;;;11.25;60.51
26859;BME280;14429;48.346;16.338;2022-12-24T06:06:52;99209.91;;;11.24;63.55
26859;BME280;14429;48.346;16.338;2022-12-24T06:09:17;99211.63;;;11.25;61.84
26859;BME280;14429;48.346;16.338;2022-12-24T06:11:42;99224.47;;;11.31;62.21
26859;BME280;14429;48.346;16.338;2022-12-24T06:14:08;99248.00;;;11.26;60.76
26859;BME280;14429;48.346;16.338;2022-12-24T06:16:33;99245.44;;;11.35;61.57
26859;BME280;14429;48.346;16.338;2022-12-24T06:18:59;99246.19;;;11.27;60.83
26859;BME280;14429;48.346;16.338;2022-12-24T06:21:24;99252.28;;;11.29;61.57
26859;BME280;14429;48.346;16.338;2022-12-24T06:23:51;99258.78;;;11.35;60.28
26859;BME280;14429;48.346;16.338;2022-12-24T06:26:18;99253.13;;;11.29;60.65
26859;BME280;14429;48.346;16.338;2022-12-24T06:28:45;99245.25;;;11.38;59.56
26859;BME280;14429;48.346;16.338;2022-12-24T06:31:13;99242.31;;;11.30;60.13
26859;BME280;14429;48.346;16.338;2022-12-24T06:33:39;99249.09;;;11.34;61.22
26859;BME280;14429;48.346;16.338;2022-12-24T06:36:05;99237.44;;;11.35;59.67
26859;BME280;14429;48.346;16.338;2022-12-24T06:38:31;99244.00;;;11.31;63.47
26859;BME280;14429;48.346;16.338;2022-12-24T06:40:58;99253.44;;;11.35;59.33
26859;BME280;14429;48.346;16.338;2022-12-24T06:43:23;99258.31;;;11.30;59.41
26859;BME280;14429;48.346;16.338;2022-12-24T06:45:49;99251.91;;;11.33;60.05
26859;BME280;14429;48.346;16.338;2022-12-24T06:48:14;99247.63;;;11.30;60.20
26859;BME280;14429;48.346;16.338;2022-12-24T06:50:40;99254.06;;;11.28;59.85
26859;BME280;14429;48.346;16.338;2022-12-24T06:53:05;99245.94;;;11.30;59.30
26859;BME280;14429;48.346;16.338;2022-12-24T06:55:31;99254.56;;;11.22;59.64
26859;BME280;14429;48.346;16.338;2022-12-24T06:57:58;99256.47;;;11.20;61.61
26859;BME280;14429;48.346;16.338;2022-12-24T07:00:23;99271.03;;;11.16;60.85
26859;BME280;14429;48.346;16.338;2022-12-24T07:02:49;99277.81;;;11.20;60.98
26859;BME280;14429;48.346;16.338;2022-12-24T07:05:15;99281.00;;;11.25;63.88
26859;BME280;14429;48.346;16.338;2022-12-24T07:07:42;99285.72;;;11.22;60.34
26859;BME280;14429;48.346;16.338;2022-12-24T07:10:10;99297.72;;;11.27;59.46
26859;BME280;14429;48.346;16.338;2022-12-24T07:12:36;99289.97;;;11.24;59.61
26859;BME280;14429;48.346;16.338;2022-12-24T07:15:03;99298.47;;;11.29;60.00
26859;BME280;14429;48.346;16.338;2022-12-24T07:17:28;99285.97;;;11.30;59.68
26859;BME280;14429;48.346;16.338;2022-12-24T07:19:54;99286.59;;;11.22;59.96
26859;BME280;14429;48.346;16.338;2022-12-24T07:22:19;99296.53;;;11.31;59.08
26859;BME280;14429;48.346;16.338;2022-12-24T07:24:45;99303.81;;;11.29;59.59
26859;BME280;14429;48.346;16.338;2022-12-24T07:27:10;99308.94;;;11.32;59.57
26859;BME280;14429;48.346;16.338;2022-12-24T07:29:36;99286.69;;;11.31;61.60
26859;BME280;14429;48.346;16.338;2022-12-24T07:32:03;99300.16;;;11.30;59.60
26859;BME280;14429;48.346;16.338;2022-12-24T07:34:28;99308.66;;;11.35;59.15
26859;BME280;14429;48.346;16.338;2022-12-24T07:36:54;99303.81;;;11.29;59.23
26859;BME280;14429;48.346;16.338;2022-12-24T07:39:19;99304.44;;;11.32;59.38
26859;BME280;14429;48.346;16.338;2022-12-24T07:41:44;99306.97;;;11.34;59.42
26859;BME280;14429;48.346;16.338;2022-12-24T07:44:10;99319.59;;;11.32;59.47
26859;BME280;14429;48.346;16.338;2022-12-24T07:46:36;99321.53;;;11.30;59.24
26859;BME280;14429;48.346;16.338;2022-12-24T07:49:03;99325.84;;;11.20;59.78
26859;BME280;14429;48.346;16.338;2022-12-24T07:51:28;99318.97;;;11.18;60.47
26859;BME280;14429;48.346;16.338;2022-12-24T07:53:54;99330.44;;;11.07;60.95
26859;BME280;14429;48.346;16.338;2022-12-24T07:56:19;99333.75;;;11.22;61.32
26859;BME280;14429;48.346;16.338;2022-12-24T07:58:44;99332.66;;;11.24;60.71
26859;BME280;14429;48.346;16.338;2022-12-24T08:01:10;99334.59;;;11.22;61.46
26859;BME280;14429;48.346;16.338;2022-12-24T08:03:36;99340.19;;;11.30;59.40
26859;BME280;14429;48.346;16.338;2022-12-24T08:06:03;99342.47;;;11.24;59.73
26859;BME280;14429;48.346;16.338;2022-12-24T08:08:29;99345.19;;;11.34;60.12
26859;BME280;14429;48.346;16.338;2022-12-24T08:10:59;99334.72;;;11.31;59.63
26859;BME280;14429;48.346;16.338;2022-12-24T08:13:25;99341.91;;;11.31;60.52
26859;BME280;14429;48.346;16.338;2022-12-24T08:15:50;99342.41;;;11.36;62.29
26859;BME280;14429;48.346;16.338;2022-12-24T08:18:16;99348.69;;;11.35;62.12
26859;BME280;14429;48.346;16.338;2022-12-24T08:20:41;99347.50;;;11.39;58.99
26859;BME280;14429;48.346;16.338;2022-12-24T08:23:08;99351.34;;;11.35;59.64
26859;BME280;14429;48.346;16.338;2022-12-24T08:25:34;99359.66;;;11.43;62.55
26859;BME280;14429;48.346;16.338;2022-12-24T08:27:59;99371.22;;;11.43;61.52
26859;BME280;14429;48.346;16.338;2022-12-24T08:30:25;99363.53;;;11.39;59.76
26859;BME280;14429;48.346;16.338;2022-12-24T08:32:50;99373.28;;;11.51;58.67
26859;BME280;14429;48.346;16.338;2022-12-24T08:35:16;99377.66;;;11.52;58.82
26859;BME280;14429;48.346;16.338;2022-12-24T08:37:41;99374.47;;;11.57;58.60
26859;BME280;14429;48.346;16.338;2022-12-24T08:40:09;99368.44;;;11.56;58.49
26859;BME280;14429;48.346;16.338;2022-12-24T08:42:35;99368.41;;;11.45;59.17
26859;BME280;14429;48.346;16.338;2022-12-24T08:45:01;99374.09;;;11.40;59.51
26859;BME280;14429;48.346;16.338;2022-12-24T08:47:26;99380.31;;;11.52;59.47
26859;BME280;14429;48.346;16.338;2022-12-24T08:49:51;99385.44;;;11.55;58.65
26859;BME280;14429;48.346;16.338;2022-12-24T08:52:17;99397.19;;;11.52;59.72
26859;BME280;14429;48.346;16.338;2022-12-24T08:54:42;99403.88;;;11.68;58.91
26859;BME280;14429;48.346;16.338;2022-12-24T08:57:09;99406.88;;;11.53;58.67
26859;BME280;14429;48.346;16.338;2022-12-24T08:59:34;99411.34;;;11.42;59.47
26859;BME280;14429;48.346;16.338;2022-12-24T09:02:00;99396.09;;;11.55;59.08
26859;BME280;14429;48.346;16.338;2022-12-24T09:04:25;99403.81;;;11.47;59.18
26859;BME280;14429;48.346;16.338;2022-12-24T09:06:51;99399.84;;;11.52;58.88
26859;BME280;14429;48.346;16.338;2022-12-24T09:09:16;99399.25;;;11.49;59.11
26859;BME280;14429;48.346;16.338;2022-12-24T09:11:42;99408.25;;;11.58;59.30
26859;BME280;14429;48.346;16.338;2022-12-24T09:14:09;99399.25;;;11.59;59.86
26859;BME280;14429;48.346;16.338;2022-12-24T09:16:34;99430.28;;;11.50;59.40
26859;BME280;14429;48.346;16.338;2022-12-24T09:18:59;99418.44;;;11.64;59.26
26859;BME280;14429;48.346;16.338;2022-12-24T09:21:25;99427.16;;;11.56;59.13
26859;BME280;14429;48.346;16.338;2022-12-24T09:23:50;99414.31;;;11.71;61.41
26859;BME280;14429;48.346;16.338;2022-12-24T09:26:18;99431.81;;;11.75;59.67
26859;BME280;14429;48.346;16.338;2022-12-24T09:28:44;99438.81;;;11.55;59.48
26859;BME280;14429;48.346;16.338;2022-12-24T09:31:11;99432.53;;;11.66;59.80
26859;BME280;14429;48.346;16.338;2022-12-24T09:33:38;99437.56;;;11.92;62.82
26859;BME280;14429;48.346;16.338;2022-12-24T09:36:05;99439.78;;;11.64;59.56
26859;BME280;14429;48.346;16.338;2022-12-24T09:38:31;99451.22;;;11.66;60.18
26859;BME280;14429;48.346;16.338;2022-12-24T09:40:57;99453.19;;;11.75;62.09
26859;BME280;14429;48.346;16.338;2022-12-24T09:43:25;99459.72;;;11.71;59.65
26859;BME280;14429;48.346;16.338;2022-12-24T09:46:02;99458.50;;;11.64;60.18
26859;BME280;14429;48.346;16.338;2022-12-24T09:48:33;99466.16;;;11.80;61.16
26859;BME280;14429;48.346;16.338;2022-12-24T09:51:03;99468.56;;;11.61;59.54
26859;BME280;14429;48.346;16.338;2022-12-24T09:53:35;99476.38;;;11.75;59.92
26859;BME280;14429;48.346;16.338;2022-12-24T09:56:08;99484.00;;;11.68;59.24
26859;BME280;14429;48.346;16.338;2022-12-24T09:58:38;99488.41;;;11.91;63.59
26859;BME280;14429;48.346;16.338;2022-12-24T10:01:05;99496.56;;;11.89;59.74
26859;BME280;14429;48.346;16.338;2022-12-24T10:03:31;99505.88;;;11.84;59.32
26859;BME280;14429;48.346;16.338;2022-12-24T10:06:04;99505.78;;;11.85;59.64
26859;BME280;14429;48.346;16.338;2022-12-24T10:08:42;99510.47;;;11.71;59.48
26859;BME280;14429;48.346;16.338;2022-12-24T10:11:14;99509.28;;;11.86;60.78
26859;BME280;14429;48.346;16.338;2022-12-24T10:13:53;99512.44;;;11.91;61.45
26859;BME280;14429;48.346;16.338;2022-12-24T10:16:32;99521.19;;;11.82;59.17
26859;BME280;14429;48.346;16.338;2022-12-24T10:19:07;99530.22;;;11.92;59.32
26859;BME280;14429;48.346;16.338;2022-12-24T10:21:46;99532.88;;;12.03;61.16
26859;BME280;14429;48.346;16.338;2022-12-24T10:24:17;99512.25;;;12.05;61.32
26859;BME280;14429;48.346;16.338;2022-12-24T10:26:49;99530.56;;;11.98;61.36
26859;BME280;14429;48.346;16.338;2022-12-24T10:29:20;99534.38;;;12.07;62.38
26859;BME280;14429;48.346;16.338;2022-12-24T10:31:52;99547.97;;;12.04;62.73
26859;BME280;14429;48.346;16.338;2022-12-24T10:34:22;99547.47;;;12.10;64.04
26859;BME280;14429;48.346;16.338;2022-12-24T10:36:48;99540.91;;;12.13;63.63
26859;BME280;14429;48.346;16.338;2022-12-24T10:39:15;99528.69;;;12.22;64.69
26859;BME280;14429;48.346;16.338;2022-12-24T10:41:41;99522.50;;;12.21;63.82
26859;BME280;14429;48.346;16.338;2022-12-24T10:44:09;99522.75;;;12.29;63.62
26859;BME280;14429;48.346;16.338;2022-12-24T10:46:39;99532.22;;;12.33;63.90
26859;BME280;14429;48.346;16.338;2022-12-24T10:49:06;99542.19;;;12.42;65.17
26859;BME280;14429;48.346;16.338;2022-12-24T10:51:37;99538.53;;;12.43;65.43
26859;BME280;14429;48.346;16.338;2022-12-24T10:54:09;99540.50;;;12.41;65.94
26859;BME280;14429;48.346;16.338;2022-12-24T10:56:39;99540.13;;;12.45;65.83
26859;BME280;14429;48.346;16.338;2022-12-24T10:59:05;99545.09;;;12.50;64.97
26859;BME280;14429;48.346;16.338;2022-12-24T11:01:44;99555.56;;;12.53;65.04
26859;BME280;14429;48.346;16.338;2022-12-24T11:04:15;99556.56;;;12.63;65.63
26859;BME280;14429;48.346;16.338;2022-12-24T11:06:51;99569.19;;;12.61;65.09
26859;BME280;14429;48.346;16.338;2022-12-24T11:09:21;99566.97;;;12.55;64.11
26859;BME280;14429;48.346;16.338;2022-12-24T11:11:47;99575.97;;;12.43;64.12
26859;BME280;14429;48.346;16.338;2022-12-24T11:14:15;99567.91;;;12.32;64.38
26859;BME280;14429;48.346;16.338;2022-12-24T11:16:48;99584.72;;;12.34;64.97
26859;BME280;14429;48.346;16.338;2022-12-24T11:19:17;99574.59;;;12.27;64.20
26859;BME280;14429;48.346;16.338;2022-12-24T11:21:44;99577.66;;;12.22;64.85
26859;BME280;14429;48.346;16.338;2022-12-24T11:24:24;99577.88;;;12.19;64.40
26859;BME280;14429;48.346;16.338;2022-12-24T11:26:50;99574.94;;;12.12;63.63
26859;BME280;14429;48.346;16.338;2022-12-24T11:29:19;99582.59;;;12.16;64.05
26859;BME280;14429;48.346;16.338;2022-12-24T11:31:46;99580.28;;;12.12;64.06
26859;BME280;14429;48.346;16.338;2022-12-24T11:34:24;99572.75;;;12.16;63.22
26859;BME280;14429;48.346;16.338;2022-12-24T11:36:52;99585.41;;;12.14;63.18
26859;BME280;14429;48.346;16.338;2022-12-24T11:39:19;99592.00;;;12.21;62.42
26859;BME280;14429;48.346;16.338;2022-12-24T11:41:45;99592.72;;;12.23;62.66
26859;BME280;14429;48.346;16.338;2022-12-24T11:44:11;99586.66;;;12.21;62.24
26859;BME280;14429;48.346;16.338;2022-12-24T11:46:38;99589.81;;;12.37;64.21
26859;BME280;14429;48.346;16.338;2022-12-24T11:49:16;99599.38;;;12.29;62.19
26859;BME280;14429;48.346;16.338;2022-12-24T11:52:04;99581.88;;;12.25;62.90
26859;BME280;14429;48.346;16.338;2022-12-24T11:54:42;99598.69;;;12.38;63.95
26859;BME280;14429;48.346;16.338;2022-12-24T11:57:10;99597.56;;;12.18;61.31
26859;BME280;14429;48.346;16.338;2022-12-24T11:59:41;99599.88;;;12.23;62.28
26859;BME280;14429;48.346;16.338;2022-12-24T12:02:16;99590.03;;;12.23;61.26
26859;BME280;14429;48.346;16.338;2022-12-24T12:04:47;99605.84;;;12.26;61.58
26859;BME280;14429;48.346;16.338;2022-12-24T12:07:19;99608.28;;;12.29;61.41
26859;BME280;14429;48.346;16.338;2022-12-24T12:09:49;99605.84;;;12.26;62.39
26859;BME280;14429;48.346;16.338;2022-12-24T12:12:19;99603.75;;;12.19;62.96
26859;BME280;14429;48.346;16.338;2022-12-24T12:14:49;99595.97;;;12.16;63.70
26859;BME280;14429;48.346;16.338;2022-12-24T12:17:25;99600.94;;;12.20;62.49
26859;BME280;14429;48.346;16.338;2022-12-24T12:19:57;99596.38;;;12.33;61.83
26859;BME280;14429;48.346;16.338;2022-12-24T12:22:29;99602.56;;;12.23;61.57
26859;BME280;14429;48.346;16.338;2022-12-24T12:24:58;99603.53;;;12.43;64.46
26859;BME280;14429;48.346;16.338;2022-12-24T12:27:30;99607.53;;;12.27;61.16
26859;BME280;14429;48.346;16.338;2022-12-24T12:29:58;99607.31;;;12.30;60.98
26859;BME280;14429;48.346;16.338;2022-12-24T12:32:29;99608.75;;;12.23;61.17
26859;BME280;14429;48.346;16.338;2022-12-24T12:35:01;99610.56;;;12.23;61.23
26859;BME280;14429;48.346;16.338;2022-12-24T12:37:34;99610.44;;;12.24;60.62
26859;BME280;14429;48.346;16.338;2022-12-24T12:40:01;99610.44;;;12.24;61.56
26859;BME280;14429;48.346;16.338;2022-12-24T12:42:29;99612.88;;;12.27;62.01
26859;BME280;14429;48.346;16.338;2022-12-24T12:45:05;99616.94;;;12.33;62.47
26859;BME280;14429;48.346;16.338;2022-12-24T12:47:48;99628.91;;;12.27;62.56
26859;BME280;14429;48.346;16.338;2022-12-24T12:50:22;99636.72;;;12.30;61.12
26859;BME280;14429;48.346;16.338;2022-12-24T12:53:12;99635.88;;;12.30;63.94
26859;BME280;14429;48.346;16.338;2022-12-24T12:55:50;99636.22;;;12.25;62.60